Time;durP1;ratioP1;P1;durP2;ratioP2;P2;SDS_P1;SDS_P2;PMS_P1;PMS_P2;Temp;Humidity;BMP_temperature;BMP_pressure;BME280_temperature;BME280_humidity;BME280_pressure;Samples;Min_cycle;Max_cycle;Signal;HPM_P1;HPM_P2
2022/11/25 00:00:33;;;;;;;;;;;30.40;80.50;;;;;;5069345;28;19924;-77
2022/11/25 00:03:00;;;;;;;;;;;30.50;79.70;;;;;;5058888;28;20007;-74
2022/11/25 00:05:27;;;;;;;;;;;30.50;79.30;;;;;;5063921;28;20334;-75
2022/11/25 00:07:53;;;;;;;;;;;30.60;78.00;;;;;;5063820;28;19919;-75
2022/11/25 00:10:21;;;;;;;;;;;30.60;78.90;;;;;;5064423;28;19937;-77
2022/11/25 00:12:47;;;;;;;;;;;30.70;77.70;;;;;;5070423;28;20007;-75
2022/11/25 00:15:14;;;;;;;;;;;30.80;77.50;;;;;;5073857;28;19912;-78
2022/11/25 00:17:41;;;;;;;;;;;30.90;77.20;;;;;;5065483;28;19921;-76
2022/11/25 00:20:08;;;;;;;;;;;30.90;77.00;;;;;;5071376;28;19966;-79
2022/11/25 00:22:34;;;;;;;;;;;30.80;78.70;;;;;;5069416;28;19912;-75
2022/11/25 00:25:01;;;;;;;;;;;30.80;77.60;;;;;;5065676;28;19928;-76
2022/11/25 00:27:28;;;;;;;;;;;30.70;77.40;;;;;;5061960;28;19975;-76
2022/11/25 00:29:54;;;;;;;;;;;30.60;79.10;;;;;;5065480;28;19923;-76
2022/11/25 00:32:21;;;;;;;;;;;30.80;78.80;;;;;;5069657;28;19944;-76
2022/11/25 00:34:48;;;;;;;;;;;30.90;77.20;;;;;;5065046;28;19913;-75
2022/11/25 00:37:15;;;;;;;;;;;31.00;79.00;;;;;;5068673;28;19927;-76
2022/11/25 00:39:41;;;;;;;;;;;31.20;78.90;;;;;;5080463;28;19913;-79
2022/11/25 00:44:53;;;;;;;;;;;30.70;75.10;;;;;;5065298;28;19963;-74
2022/11/25 00:47:20;;;;;;;;;;;30.80;78.50;;;;;;5073256;28;19969;-76
2022/11/25 00:49:48;;;;;;;;;;;31.10;77.70;;;;;;5079138;28;19919;-76
2022/11/25 00:52:22;;;;;;;;;;;31.40;78.60;;;;;;5064546;28;19928;-79
2022/11/25 00:54:50;;;;;;;;;;;31.80;76.80;;;;;;5074766;28;19970;-76
2022/11/25 00:57:18;;;;;;;;;;;31.80;76.60;;;;;;5073824;28;20370;-75
2022/11/25 00:59:45;;;;;;;;;;;31.60;76.00;;;;;;5068505;28;20033;-75
2022/11/25 01:02:12;;;;;;;;;;;31.70;74.50;;;;;;5063732;28;19912;-76
2022/11/25 01:04:39;;;;;;;;;;;31.50;73.70;;;;;;5067219;28;20444;-75
2022/11/25 01:07:06;;;;;;;;;;;31.50;76.10;;;;;;5065822;28;20893;-75
2022/11/25 01:09:33;;;;;;;;;;;31.80;76.50;;;;;;5069961;28;19939;-75
2022/11/25 01:11:59;;;;;;;;;;;32.10;72.10;;;;;;5060549;28;19951;-73
2022/11/25 01:14:26;;;;;;;;;;;31.40;71.60;;;;;;5071278;28;20468;-75
2022/11/25 01:16:53;;;;;;;;;;;31.00;72.20;;;;;;5062598;28;19913;-75
2022/11/25 01:19:20;;;;;;;;;;;30.70;72.00;;;;;;5058353;28;19994;-74
2022/11/25 01:21:47;;;;;;;;;;;30.60;72.10;;;;;;5046782;28;19918;-77
2022/11/25 01:24:14;;;;;;;;;;;30.60;72.40;;;;;;5065983;28;19912;-76
2022/11/25 01:26:42;;;;;;;;;;;30.80;72.50;;;;;;5063313;28;20442;-75
2022/11/25 01:29:13;;;;;;;;;;;31.00;70.60;;;;;;5062741;28;19973;-73
2022/11/25 01:31:40;;;;;;;;;;;31.30;70.10;;;;;;5061595;28;19928;-74
2022/11/25 01:34:11;;;;;;;;;;;31.50;72.20;;;;;;5071755;28;19912;-75
2022/11/25 01:36:38;;;;;;;;;;;31.80;71.50;;;;;;5064983;28;19912;-77
2022/11/25 01:39:05;;;;;;;;;;;31.90;69.10;;;;;;5063780;28;19931;-75
2022/11/25 01:41:33;;;;;;;;;;;32.10;72.10;;;;;;5067537;28;20409;-75
2022/11/25 01:44:13;;;;;;;;;;;32.50;71.70;;;;;;5064426;28;19966;-75
2022/11/25 01:46:40;;;;;;;;;;;32.60;69.00;;;;;;5064848;28;19920;-75
2022/11/25 01:49:23;;;;;;;;;;;32.70;69.80;;;;;;5075579;28;19917;-76
2022/11/25 01:51:54;;;;;;;;;;;32.70;70.80;;;;;;5062900;28;19928;-76
2022/11/25 01:54:22;;;;;;;;;;;33.10;73.20;;;;;;5061017;28;20065;-75
2022/11/25 01:56:50;;;;;;;;;;;33.40;70.70;;;;;;5065140;28;19912;-76
2022/11/25 01:59:17;;;;;;;;;;;33.50;70.40;;;;;;5067072;28;20386;-75
2022/11/25 02:01:44;;;;;;;;;;;33.70;72.20;;;;;;5069748;28;20354;-75
2022/11/25 02:04:12;;;;;;;;;;;33.80;69.40;;;;;;5073133;28;20054;-79
2022/11/25 02:06:41;;;;;;;;;;;34.00;70.60;;;;;;5061820;28;19921;-73
2022/11/25 02:09:08;;;;;;;;;;;34.20;67.70;;;;;;5063824;28;19921;-74
2022/11/25 02:11:36;;;;;;;;;;;34.10;67.20;;;;;;5066697;28;19979;-74
2022/11/25 02:14:03;;;;;;;;;;;34.30;68.10;;;;;;5071062;28;19916;-75
2022/11/25 02:16:30;;;;;;;;;;;34.40;67.40;;;;;;5070974;28;20073;-74
2022/11/25 02:18:57;;;;;;;;;;;33.80;64.60;;;;;;5065278;28;19962;-75
2022/11/25 02:21:25;;;;;;;;;;;33.20;65.30;;;;;;5066374;28;19916;-75
2022/11/25 02:23:52;;;;;;;;;;;32.40;65.60;;;;;;5069218;28;19918;-77
2022/11/25 02:26:19;;;;;;;;;;;32.00;67.00;;;;;;5068971;28;19923;-76
2022/11/25 02:28:47;;;;;;;;;;;31.80;68.20;;;;;;5067961;28;19917;-75
2022/11/25 02:31:18;;;;;;;;;;;32.10;68.80;;;;;;5064390;28;19917;-76
2022/11/25 02:33:45;;;;;;;;;;;32.70;71.30;;;;;;5068623;28;19939;-74
2022/11/25 02:36:14;;;;;;;;;;;33.20;69.60;;;;;;5068379;28;19916;-75
2022/11/25 02:38:46;;;;;;;;;;;33.40;69.00;;;;;;5071697;28;19913;-74
2022/11/25 02:41:13;;;;;;;;;;;33.40;65.20;;;;;;5069467;28;19999;-75
2022/11/25 02:43:40;;;;;;;;;;;32.60;64.60;;;;;;5062386;28;19917;-75
2022/11/25 02:46:08;;;;;;;;;;;32.10;66.90;;;;;;5057320;28;19999;-72
2022/11/25 02:48:36;;;;;;;;;;;32.30;68.30;;;;;;5066053;28;20261;-72
2022/11/25 02:51:03;;;;;;;;;;;32.60;67.00;;;;;;5068983;28;19913;-77
2022/11/25 02:53:30;;;;;;;;;;;32.80;67.50;;;;;;5070591;28;19931;-74
2022/11/25 02:55:58;;;;;;;;;;;32.90;65.60;;;;;;5072559;28;20440;-72
2022/11/25 02:58:24;;;;;;;;;;;33.10;65.50;;;;;;5071632;28;20025;-75
2022/11/25 03:00:51;;;;;;;;;;;33.20;64.50;;;;;;5070801;28;20321;-76
2022/11/25 03:03:18;;;;;;;;;;;33.00;64.00;;;;;;5069631;28;19915;-74
2022/11/25 03:05:44;;;;;;;;;;;32.70;65.00;;;;;;5067853;28;19999;-74
2022/11/25 03:08:11;;;;;;;;;;;32.30;65.40;;;;;;5074013;28;19920;-73
2022/11/25 03:10:38;;;;;;;;;;;32.10;66.50;;;;;;5062405;28;19927;-73
2022/11/25 03:13:06;;;;;;;;;;;32.10;65.40;;;;;;5071192;28;20015;-73
2022/11/25 03:15:33;;;;;;;;;;;32.10;65.70;;;;;;5067844;28;19961;-74
2022/11/25 03:17:59;;;;;;;;;;;31.70;65.20;;;;;;5062633;28;19912;-76
2022/11/25 03:20:26;;;;;;;;;;;31.00;66.50;;;;;;5072948;28;19916;-76
2022/11/25 03:22:53;;;;;;;;;;;30.90;68.00;;;;;;5071157;28;19916;-76
2022/11/25 03:25:20;;;;;;;;;;;31.50;67.50;;;;;;5075154;28;19912;-75
2022/11/25 03:27:46;;;;;;;;;;;31.70;66.50;;;;;;5065190;28;19912;-73
2022/11/25 03:30:18;;;;;;;;;;;31.90;65.80;;;;;;5073004;28;19912;-79
2022/11/25 03:32:45;;;;;;;;;;;31.70;65.60;;;;;;5072342;28;19927;-74
2022/11/25 03:35:11;;;;;;;;;;;31.30;66.40;;;;;;5071714;28;19923;-76
2022/11/25 03:37:38;;;;;;;;;;;31.00;73.70;;;;;;5071646;28;20296;-76
2022/11/25 03:40:06;;;;;;;;;;;31.30;74.70;;;;;;5073144;28;19912;-74
2022/11/25 03:42:33;;;;;;;;;;;31.30;74.10;;;;;;5044098;28;19921;-75
2022/11/25 03:45:00;;;;;;;;;;;31.30;73.10;;;;;;5069300;28;19913;-75
2022/11/25 03:47:27;;;;;;;;;;;31.40;72.90;;;;;;5069526;28;20288;-74
2022/11/25 03:49:54;;;;;;;;;;;31.30;76.30;;;;;;5071284;28;19913;-76
2022/11/25 03:52:21;;;;;;;;;;;30.80;76.00;;;;;;5064756;28;19976;-75
2022/11/25 03:54:47;;;;;;;;;;;30.30;76.00;;;;;;5060464;28;19924;-76
2022/11/25 03:57:14;;;;;;;;;;;30.30;79.20;;;;;;5072958;28;19965;-77
2022/11/25 03:59:42;;;;;;;;;;;30.70;79.20;;;;;;5063525;28;19916;-77
2022/11/25 04:02:09;;;;;;;;;;;31.20;80.40;;;;;;5071544;28;19955;-73
2022/11/25 04:04:36;;;;;;;;;;;31.50;79.50;;;;;;5067582;28;19923;-72
2022/11/25 04:07:03;;;;;;;;;;;31.50;79.60;;;;;;5073842;28;19919;-74
2022/11/25 04:09:29;;;;;;;;;;;31.40;80.10;;;;;;5068743;28;21192;-74
2022/11/25 04:14:41;;;;;;;;;;;31.40;80.40;;;;;;5058179;28;19920;-73
2022/11/25 04:17:08;;;;;;;;;;;31.30;80.10;;;;;;5070647;28;19943;-75
2022/11/25 04:19:34;;;;;;;;;;;31.20;81.00;;;;;;5071633;28;20370;-74
2022/11/25 04:22:01;;;;;;;;;;;30.90;81.20;;;;;;5066490;28;19920;-74
2022/11/25 04:24:28;;;;;;;;;;;30.60;81.50;;;;;;5067147;28;19958;-77
2022/11/25 04:26:55;;;;;;;;;;;30.40;82.10;;;;;;5065434;28;20001;-75
2022/11/25 04:29:21;;;;;;;;;;;30.30;82.20;;;;;;5071066;28;19916;-74
2022/11/25 04:31:48;;;;;;;;;;;30.30;83.40;;;;;;5071729;28;20355;-72
2022/11/25 04:34:16;;;;;;;;;;;30.40;83.10;;;;;;5063850;28;20003;-76
2022/11/25 04:36:43;;;;;;;;;;;30.30;83.60;;;;;;5061213;28;19916;-74
2022/11/25 04:39:09;;;;;;;;;;;30.40;83.50;;;;;;5068452;28;19950;-75
2022/11/25 04:41:36;;;;;;;;;;;30.40;83.60;;;;;;5069695;28;19920;-77
2022/11/25 04:44:03;;;;;;;;;;;30.10;83.50;;;;;;5072062;28;19919;-73
2022/11/25 04:46:37;;;;;;;;;;;29.80;84.30;;;;;;5071080;28;19980;-75
2022/11/25 04:49:03;;;;;;;;;;;29.60;84.50;;;;;;5071474;28;19924;-76
2022/11/25 04:51:30;;;;;;;;;;;29.30;84.30;;;;;;5066085;28;19913;-73
2022/11/25 04:53:57;;;;;;;;;;;29.20;85.10;;;;;;5071607;28;19952;-75
2022/11/25 04:56:24;;;;;;;;;;;29.00;85.00;;;;;;5070035;28;19912;-73
2022/11/25 05:01:35;;;;;;;;;;;29.10;85.50;;;;;;5067856;28;20291;-74
2022/11/25 05:04:02;;;;;;;;;;;29.00;85.00;;;;;;5064120;28;19927;-75
2022/11/25 05:06:29;;;;;;;;;;;28.70;85.50;;;;;;5065761;28;19942;-72
2022/11/25 05:08:56;;;;;;;;;;;28.80;86.00;;;;;;5069321;28;20336;-73
2022/11/25 05:11:22;;;;;;;;;;;28.70;85.50;;;;;;5059753;28;19920;-73
2022/11/25 05:13:49;;;;;;;;;;;28.70;85.20;;;;;;5066433;28;19932;-74
2022/11/25 05:16:16;;;;;;;;;;;28.40;85.00;;;;;;5065908;28;19917;-74
2022/11/25 05:18:42;;;;;;;;;;;28.30;85.50;;;;;;5063904;28;19957;-74
2022/11/25 05:21:09;;;;;;;;;;;28.30;85.80;;;;;;5067815;28;19962;-74
2022/11/25 05:23:36;;;;;;;;;;;28.20;85.70;;;;;;5062746;28;19916;-72
2022/11/25 05:26:03;;;;;;;;;;;28.10;85.60;;;;;;5052800;28;19951;-73
2022/11/25 05:28:32;;;;;;;;;;;28.20;85.60;;;;;;5053723;28;19924;-73
2022/11/25 05:30:59;;;;;;;;;;;28.00;85.90;;;;;;5069275;28;19916;-75
2022/11/25 05:33:25;;;;;;;;;;;27.70;86.30;;;;;;5071300;28;19924;-74
2022/11/25 05:36:01;;;;;;;;;;;27.80;87.10;;;;;;5070450;28;20019;-74
2022/11/25 05:38:27;;;;;;;;;;;27.90;86.60;;;;;;5052957;28;19909;-73
2022/11/25 05:40:59;;;;;;;;;;;27.80;86.20;;;;;;5071094;28;19916;-74
2022/11/25 05:43:26;;;;;;;;;;;27.80;86.30;;;;;;5063689;28;19936;-73
2022/11/25 05:45:54;;;;;;;;;;;27.70;86.30;;;;;;5071137;28;19974;-74
2022/11/25 05:48:21;;;;;;;;;;;27.70;87.10;;;;;;5064328;28;20260;-75
2022/11/25 05:50:47;;;;;;;;;;;27.70;86.40;;;;;;5072095;28;19951;-73
2022/11/25 05:53:16;;;;;;;;;;;27.60;86.20;;;;;;5069811;28;19924;-74
2022/11/25 05:55:43;;;;;;;;;;;27.50;86.60;;;;;;5069005;28;20337;-73
2022/11/25 05:58:11;;;;;;;;;;;27.40;87.00;;;;;;5070714;28;19918;-75
2022/11/25 06:00:37;;;;;;;;;;;27.40;87.40;;;;;;5069451;28;19921;-74
2022/11/25 06:03:04;;;;;;;;;;;27.50;87.80;;;;;;5070939;28;19954;-77
2022/11/25 06:05:33;;;;;;;;;;;27.50;87.70;;;;;;5061721;28;19974;-76
2022/11/25 06:08:00;;;;;;;;;;;27.40;87.90;;;;;;5053835;28;19916;-78
2022/11/25 06:10:27;;;;;;;;;;;27.40;88.90;;;;;;5068802;28;19925;-76
2022/11/25 06:12:53;;;;;;;;;;;27.30;88.10;;;;;;5072087;28;19921;-75
2022/11/25 06:15:20;;;;;;;;;;;27.20;88.30;;;;;;5067501;28;20274;-73
2022/11/25 06:17:47;;;;;;;;;;;27.10;88.80;;;;;;5068827;28;19917;-71
2022/11/25 06:20:13;;;;;;;;;;;27.00;88.80;;;;;;5068025;28;20382;-75
2022/11/25 06:22:40;;;;;;;;;;;27.00;89.20;;;;;;5070748;28;19939;-76
2022/11/25 06:25:07;;;;;;;;;;;27.00;88.80;;;;;;5069780;28;20424;-73
2022/11/25 06:27:34;;;;;;;;;;;27.00;88.90;;;;;;5065099;28;19913;-73
2022/11/25 06:30:01;;;;;;;;;;;26.90;89.00;;;;;;5063635;28;20388;-75
2022/11/25 06:32:27;;;;;;;;;;;26.80;89.60;;;;;;5066763;28;19928;-74
2022/11/25 06:34:54;;;;;;;;;;;26.80;89.50;;;;;;5062324;28;19997;-74
2022/11/25 06:37:21;;;;;;;;;;;26.80;89.70;;;;;;5051032;28;20005;-74
2022/11/25 06:39:48;;;;;;;;;;;26.70;89.40;;;;;;5072066;28;19962;-72
2022/11/25 06:42:14;;;;;;;;;;;26.60;90.00;;;;;;5067764;28;19909;-73
2022/11/25 06:44:41;;;;;;;;;;;26.60;89.80;;;;;;5067556;28;20000;-75
2022/11/25 06:47:08;;;;;;;;;;;26.50;89.50;;;;;;5073297;28;20347;-77
2022/11/25 06:49:34;;;;;;;;;;;26.40;89.80;;;;;;5069098;28;19914;-78
2022/11/25 06:52:01;;;;;;;;;;;26.30;90.00;;;;;;5073858;28;19927;-76
2022/11/25 06:54:28;;;;;;;;;;;26.20;90.20;;;;;;5064276;28;19924;-78
2022/11/25 06:56:55;;;;;;;;;;;26.10;90.40;;;;;;5073803;28;20264;-78
2022/11/25 06:59:21;;;;;;;;;;;26.10;90.40;;;;;;5072312;28;19909;-76
2022/11/25 07:01:48;;;;;;;;;;;26.10;90.40;;;;;;5071961;28;19926;-77
2022/11/25 07:04:15;;;;;;;;;;;25.90;90.50;;;;;;5072684;28;19920;-76
2022/11/25 07:06:42;;;;;;;;;;;25.80;90.60;;;;;;5067723;28;19919;-76
2022/11/25 07:09:08;;;;;;;;;;;25.70;90.90;;;;;;5068306;28;19912;-78
2022/11/25 07:11:36;;;;;;;;;;;25.70;90.90;;;;;;5072076;28;20014;-83
2022/11/25 07:14:04;;;;;;;;;;;25.70;90.90;;;;;;5074277;28;19965;-78
2022/11/25 07:16:32;;;;;;;;;;;25.70;91.00;;;;;;5075606;28;19913;-78
2022/11/25 07:19:02;;;;;;;;;;;25.70;91.00;;;;;;5077830;28;20388;-73
2022/11/25 07:21:29;;;;;;;;;;;25.60;91.10;;;;;;5074554;28;20003;-78
2022/11/25 07:23:58;;;;;;;;;;;25.60;91.20;;;;;;5081117;28;19917;-75
2022/11/25 07:26:26;;;;;;;;;;;25.60;91.20;;;;;;5056878;28;19948;-76
2022/11/25 07:28:53;;;;;;;;;;;25.60;91.10;;;;;;5070003;28;19912;-75
2022/11/25 07:31:28;;;;;;;;;;;25.60;91.10;;;;;;5071151;28;19963;-76
2022/11/25 07:33:57;;;;;;;;;;;25.60;91.00;;;;;;5065848;28;20379;-74
2022/11/25 07:36:24;;;;;;;;;;;25.50;91.00;;;;;;5068075;28;19919;-75
2022/11/25 07:38:51;;;;;;;;;;;25.50;90.80;;;;;;5071018;28;19919;-73
2022/11/25 07:41:22;;;;;;;;;;;25.40;90.90;;;;;;5067265;28;19952;-76
2022/11/25 07:43:51;;;;;;;;;;;25.30;90.80;;;;;;5068501;28;20554;-76
2022/11/25 07:46:22;;;;;;;;;;;25.10;90.70;;;;;;5073471;28;19956;-73
2022/11/25 07:48:49;;;;;;;;;;;24.90;91.20;;;;;;5071829;28;20278;-76
2022/11/25 07:51:17;;;;;;;;;;;24.60;91.60;;;;;;5060963;28;19913;-75
2022/11/25 07:53:44;;;;;;;;;;;24.50;92.00;;;;;;5069643;28;19978;-75
2022/11/25 07:56:11;;;;;;;;;;;24.40;92.00;;;;;;5074458;28;19916;-74
2022/11/25 07:58:37;;;;;;;;;;;24.40;92.10;;;;;;5074417;28;19916;-73
2022/11/25 08:01:05;;;;;;;;;;;24.30;92.10;;;;;;5074618;28;20355;-76
2022/11/25 08:03:36;;;;;;;;;;;24.20;92.20;;;;;;5073923;28;19908;-75
2022/11/25 08:06:03;;;;;;;;;;;24.10;92.40;;;;;;5074376;28;19912;-76
2022/11/25 08:08:30;;;;;;;;;;;24.00;92.40;;;;;;5073268;28;19916;-75
2022/11/25 08:10:57;;;;;;;;;;;24.00;92.60;;;;;;5071827;28;19921;-74
2022/11/25 08:13:24;;;;;;;;;;;23.80;92.50;;;;;;5072978;28;20272;-76
2022/11/25 08:15:51;;;;;;;;;;;23.80;92.70;;;;;;5073474;28;19919;-75
2022/11/25 08:18:18;;;;;;;;;;;23.70;92.90;;;;;;5072793;28;19924;-75
2022/11/25 08:20:44;;;;;;;;;;;23.60;93.00;;;;;;5070673;28;19912;-76
2022/11/25 08:23:11;;;;;;;;;;;23.50;93.10;;;;;;5073243;28;20298;-75
2022/11/25 08:25:41;;;;;;;;;;;23.40;93.30;;;;;;5072956;28;19912;-74
2022/11/25 08:28:08;;;;;;;;;;;23.30;93.50;;;;;;5072205;28;19912;-76
2022/11/25 08:30:35;;;;;;;;;;;23.30;93.60;;;;;;5070281;28;19952;-77
2022/11/25 08:33:04;;;;;;;;;;;23.20;93.80;;;;;;5072120;28;19931;-76
2022/11/25 08:35:32;;;;;;;;;;;23.10;94.10;;;;;;5071528;28;19931;-77
2022/11/25 08:37:59;;;;;;;;;;;23.10;94.40;;;;;;5071679;28;19952;-76
2022/11/25 08:40:25;;;;;;;;;;;23.00;94.50;;;;;;5073248;28;19909;-73
2022/11/25 08:42:52;;;;;;;;;;;22.90;94.70;;;;;;5072344;28;20303;-76
2022/11/25 08:45:19;;;;;;;;;;;22.80;94.80;;;;;;5054880;28;19996;-74
2022/11/25 08:47:45;;;;;;;;;;;22.80;95.00;;;;;;5068515;28;20011;-74
2022/11/25 08:50:14;;;;;;;;;;;22.60;95.20;;;;;;5072157;28;19916;-76
2022/11/25 08:52:41;;;;;;;;;;;22.60;95.30;;;;;;5071296;28;19920;-74
2022/11/25 08:55:09;;;;;;;;;;;22.50;95.50;;;;;;5072204;28;19966;-76
2022/11/25 08:57:36;;;;;;;;;;;22.50;95.60;;;;;;5071897;28;19992;-75
2022/11/25 09:00:04;;;;;;;;;;;22.40;95.80;;;;;;5068743;28;19963;-77
2022/11/25 09:02:31;;;;;;;;;;;22.30;96.00;;;;;;5055923;28;19920;-75
2022/11/25 09:04:58;;;;;;;;;;;22.20;95.90;;;;;;5072253;28;19944;-76
2022/11/25 09:07:24;;;;;;;;;;;22.20;96.00;;;;;;5072431;28;19912;-74
2022/11/25 09:09:51;;;;;;;;;;;22.20;96.10;;;;;;5070307;28;19920;-74
2022/11/25 09:12:18;;;;;;;;;;;22.10;96.20;;;;;;5071804;28;19916;-75
2022/11/25 09:14:44;;;;;;;;;;;22.10;96.30;;;;;;5072307;28;19920;-75
2022/11/25 09:17:11;;;;;;;;;;;22.00;96.60;;;;;;5071560;28;19913;-73
2022/11/25 09:19:38;;;;;;;;;;;21.90;97.10;;;;;;5070173;28;19920;-76
2022/11/25 09:22:06;;;;;;;;;;;21.80;97.70;;;;;;5071857;28;20527;-77
2022/11/25 09:24:34;;;;;;;;;;;21.70;98.20;;;;;;5060225;28;20378;-76
2022/11/25 09:27:00;;;;;;;;;;;21.60;98.70;;;;;;5071403;28;19918;-75
2022/11/25 09:29:29;;;;;;;;;;;21.50;99.30;;;;;;5068276;28;19916;-78
2022/11/25 09:31:55;;;;;;;;;;;21.40;99.60;;;;;;5069222;28;19917;-76
2022/11/25 09:34:22;;;;;;;;;;;21.30;99.90;;;;;;5065412;28;19916;-76
2022/11/25 09:36:49;;;;;;;;;;;21.20;99.90;;;;;;5071825;28;19967;-72
2022/11/25 09:39:16;;;;;;;;;;;21.10;99.90;;;;;;5071101;28;19928;-77
2022/11/25 09:47:53;;;;;;;;;;;21.00;99.90;;;;;;5061511;28;19958;-74
2022/11/25 09:50:46;;;;;;;;;;;20.80;99.90;;;;;;5043966;28;20003;-78
2022/11/25 09:53:30;;;;;;;;;;;20.80;99.90;;;;;;5041472;28;19932;-78
2022/11/25 09:56:04;;;;;;;;;;;20.70;99.90;;;;;;5068593;28;19912;-83
2022/11/25 09:58:38;;;;;;;;;;;20.60;99.90;;;;;;5069381;28;19913;-75
2022/11/25 10:01:19;;;;;;;;;;;20.60;99.90;;;;;;5069701;28;19919;-78
2022/11/25 10:03:48;;;;;;;;;;;20.50;99.90;;;;;;5060085;28;19916;-77
2022/11/25 10:06:19;;;;;;;;;;;20.40;99.90;;;;;;5063567;28;19952;-76
2022/11/25 10:08:50;;;;;;;;;;;20.40;99.90;;;;;;5063333;28;19917;-73
2022/11/25 10:11:24;;;;;;;;;;;20.40;99.90;;;;;;5063295;28;19924;-75
2022/11/25 10:14:17;;;;;;;;;;;20.30;99.90;;;;;;5064364;28;19931;-73
2022/11/25 10:16:51;;;;;;;;;;;20.30;99.90;;;;;;5064990;28;19927;-75
2022/11/25 10:19:32;;;;;;;;;;;20.30;99.90;;;;;;5053254;28;19917;-76
2022/11/25 10:21:59;;;;;;;;;;;20.20;99.90;;;;;;5075606;28;19993;-75
2022/11/25 10:24:26;;;;;;;;;;;20.20;99.90;;;;;;5067132;28;20589;-75
2022/11/25 10:27:00;;;;;;;;;;;20.10;99.90;;;;;;5066475;28;20047;-73
2022/11/25 10:29:30;;;;;;;;;;;20.10;99.90;;;;;;5064713;28;19963;-75
2022/11/25 10:32:16;;;;;;;;;;;20.00;99.90;;;;;;5067237;28;19930;-73
2022/11/25 10:34:45;;;;;;;;;;;20.00;99.90;;;;;;5070739;28;19923;-74
2022/11/25 10:37:14;;;;;;;;;;;20.00;99.90;;;;;;5068404;28;19989;-78
2022/11/25 10:39:41;;;;;;;;;;;20.00;99.90;;;;;;5069216;28;20385;-76
2022/11/25 10:42:27;;;;;;;;;;;20.10;99.90;;;;;;5059040;28;19945;-78
2022/11/25 10:44:54;;;;;;;;;;;20.10;99.90;;;;;;5069077;28;19924;-77
2022/11/25 10:47:39;;;;;;;;;;;20.10;99.90;;;;;;5054415;28;19909;-73
2022/11/25 10:50:15;;;;;;;;;;;20.20;99.90;;;;;;5070311;28;20320;-75
2022/11/25 10:52:56;;;;;;;;;;;20.20;99.90;;;;;;5063548;28;19928;-75
2022/11/25 10:55:27;;;;;;;;;;;20.20;99.90;;;;;;5073287;28;19913;-76
2022/11/25 10:57:54;;;;;;;;;;;20.20;99.90;;;;;;5069525;28;19955;-74
2022/11/25 11:00:28;;;;;;;;;;;20.20;99.90;;;;;;5066761;28;19913;-75
2022/11/25 11:02:56;;;;;;;;;;;20.10;99.90;;;;;;5066562;28;20370;-74
2022/11/25 11:05:25;;;;;;;;;;;20.10;99.90;;;;;;5073353;28;20537;-73
2022/11/25 11:08:27;;;;;;;;;;;20.00;99.90;;;;;;5073638;28;20405;-74
2022/11/25 11:11:14;;;;;;;;;;;20.00;99.90;;;;;;4998062;28;20338;-74
2022/11/25 11:13:41;;;;;;;;;;;20.00;99.90;;;;;;5056483;28;19974;-72
2022/11/25 11:16:25;;;;;;;;;;;20.10;99.90;;;;;;5066525;28;19928;-74
2022/11/25 11:18:53;;;;;;;;;;;20.10;99.90;;;;;;5072028;28;20390;-74
2022/11/25 11:21:40;;;;;;;;;;;20.10;99.90;;;;;;5066719;28;19979;-76
2022/11/25 11:24:24;;;;;;;;;;;20.10;99.90;;;;;;5072632;28;19923;-73
2022/11/25 11:27:10;;;;;;;;;;;20.00;99.90;;;;;;5075041;28;19917;-73
2022/11/25 11:29:36;;;;;;;;;;;20.00;99.90;;;;;;5076303;28;19917;-73
2022/11/25 11:32:04;;;;;;;;;;;20.10;99.90;;;;;;5073410;28;19924;-74
2022/11/25 11:34:49;;;;;;;;;;;20.00;99.90;;;;;;5065651;28;19969;-73
2022/11/25 11:37:35;;;;;;;;;;;20.00;99.90;;;;;;5066957;28;19924;-75
2022/11/25 11:40:14;;;;;;;;;;;20.00;99.90;;;;;;5067195;28;20310;-77
2022/11/25 11:42:52;;;;;;;;;;;20.00;99.90;;;;;;5065705;28;19923;-73
2022/11/25 11:45:25;;;;;;;;;;;19.90;99.90;;;;;;5069655;28;20355;-74
2022/11/25 11:48:08;;;;;;;;;;;20.00;99.90;;;;;;5065829;28;19916;-73
2022/11/25 11:50:39;;;;;;;;;;;19.90;99.90;;;;;;5067859;28;19908;-77
2022/11/25 11:53:17;;;;;;;;;;;20.00;99.90;;;;;;5070013;28;19924;-77
2022/11/25 11:56:02;;;;;;;;;;;19.90;99.90;;;;;;5072437;28;19927;-77
2022/11/25 11:58:38;;;;;;;;;;;20.00;99.90;;;;;;5070342;28;19919;-76
2022/11/25 12:01:11;;;;;;;;;;;19.90;99.90;;;;;;5073099;28;19999;-81
2022/11/25 12:03:40;;;;;;;;;;;20.00;99.90;;;;;;5054608;28;19912;-76
2022/11/25 12:06:09;;;;;;;;;;;19.90;99.90;;;;;;5064958;28;19913;-77
2022/11/25 12:09:01;;;;;;;;;;;20.00;99.90;;;;;;5067270;28;20098;-74
2022/11/25 12:11:31;;;;;;;;;;;19.90;99.90;;;;;;5055966;28;19926;-76
2022/11/25 12:14:11;;;;;;;;;;;19.90;99.90;;;;;;5069873;28;19927;-73
2022/11/25 12:16:37;;;;;;;;;;;19.90;99.90;;;;;;5071777;28;19912;-75
2022/11/25 12:19:10;;;;;;;;;;;19.90;99.90;;;;;;5072293;28;19917;-72
2022/11/25 12:21:37;;;;;;;;;;;19.80;99.90;;;;;;5073176;28;19912;-74
2022/11/25 12:24:07;;;;;;;;;;;19.80;99.90;;;;;;5066626;28;19996;-73
2022/11/25 12:26:50;;;;;;;;;;;19.80;99.90;;;;;;5055575;28;19920;-73
2022/11/25 12:29:40;;;;;;;;;;;19.80;99.90;;;;;;5061463;28;19958;-73
2022/11/25 12:32:16;;;;;;;;;;;19.80;99.90;;;;;;5067607;28;19916;-73
2022/11/25 12:35:02;;;;;;;;;;;19.70;99.90;;;;;;5071747;28;20007;-74
2022/11/25 12:37:37;;;;;;;;;;;19.70;99.90;;;;;;5040462;28;19912;-73
2022/11/25 12:40:04;;;;;;;;;;;19.70;99.90;;;;;;5064880;28;19909;-74
2022/11/25 12:42:32;;;;;;;;;;;19.60;99.90;;;;;;5066193;28;19958;-73
2022/11/25 12:45:02;;;;;;;;;;;19.70;99.90;;;;;;5072017;28;20410;-74
2022/11/25 12:47:29;;;;;;;;;;;19.60;99.90;;;;;;5071991;28;19916;-73
2022/11/25 12:49:56;;;;;;;;;;;19.60;99.90;;;;;;5072742;28;19909;-73
2022/11/25 12:52:41;;;;;;;;;;;19.60;99.90;;;;;;5054404;28;19916;-74
2022/11/25 12:55:10;;;;;;;;;;;19.70;99.90;;;;;;5043161;28;19912;-74
2022/11/25 12:57:46;;;;;;;;;;;19.60;99.90;;;;;;5065534;28;19919;-75
2022/11/25 13:00:30;;;;;;;;;;;19.50;99.90;;;;;;5053163;28;20371;-74
2022/11/25 13:03:09;;;;;;;;;;;19.40;99.90;;;;;;5052509;28;19913;-73
2022/11/25 13:05:41;;;;;;;;;;;19.40;99.90;;;;;;5067395;28;20380;-73
2022/11/25 13:08:11;;;;;;;;;;;19.30;99.90;;;;;;5072279;28;20039;-73
2022/11/25 13:10:50;;;;;;;;;;;19.20;99.90;;;;;;5071000;28;19924;-73
2022/11/25 13:13:19;;;;;;;;;;;19.20;99.90;;;;;;5064817;28;19928;-74
2022/11/25 13:15:47;;;;;;;;;;;19.10;99.90;;;;;;5052515;28;20367;-75
2022/11/25 13:18:16;;;;;;;;;;;19.00;99.90;;;;;;5070595;28;19919;-73
2022/11/25 13:21:04;;;;;;;;;;;18.90;99.90;;;;;;5072352;28;19912;-75
2022/11/25 13:23:51;;;;;;;;;;;18.90;99.90;;;;;;5071759;28;19947;-75
2022/11/25 13:26:35;;;;;;;;;;;18.80;99.90;;;;;;5052918;28;20331;-75
2022/11/25 13:29:21;;;;;;;;;;;18.70;99.90;;;;;;5054203;28;19916;-75
2022/11/25 13:31:58;;;;;;;;;;;18.60;99.90;;;;;;5045622;28;19912;-75
2022/11/25 13:34:30;;;;;;;;;;;18.60;99.90;;;;;;5060563;28;19919;-76
2022/11/25 13:37:01;;;;;;;;;;;18.50;99.90;;;;;;5070833;28;20333;-77
2022/11/25 13:39:30;;;;;;;;;;;18.40;99.90;;;;;;5068090;28;19913;-74
2022/11/25 13:42:02;;;;;;;;;;;18.40;99.90;;;;;;5067736;28;19920;-74
2022/11/25 13:44:34;;;;;;;;;;;18.40;99.90;;;;;;5059649;28;20016;-74
2022/11/25 13:47:18;;;;;;;;;;;18.30;99.90;;;;;;5056067;28;20356;-75
2022/11/25 13:49:57;;;;;;;;;;;18.30;99.90;;;;;;5050482;28;19956;-75
2022/11/25 13:52:44;;;;;;;;;;;18.20;99.90;;;;;;5064534;28;19912;-73
2022/11/25 13:55:16;;;;;;;;;;;18.20;99.90;;;;;;5071715;28;20050;-74
2022/11/25 13:57:47;;;;;;;;;;;18.20;99.90;;;;;;5071965;28;19915;-74
2022/11/25 14:00:14;;;;;;;;;;;18.20;99.90;;;;;;5072104;28;19915;-75
2022/11/25 14:02:43;;;;;;;;;;;18.10;99.90;;;;;;5071943;28;19908;-75
2022/11/25 14:05:37;;;;;;;;;;;18.10;99.90;;;;;;5064014;28;19943;-75
2022/11/25 14:08:06;;;;;;;;;;;18.10;99.90;;;;;;5053937;28;20260;-76
2022/11/25 14:10:49;;;;;;;;;;;18.10;99.90;;;;;;5072278;28;19925;-75
2022/11/25 14:13:18;;;;;;;;;;;18.10;99.90;;;;;;5071226;28;19927;-76
2022/11/25 14:15:48;;;;;;;;;;;18.10;99.90;;;;;;5070174;28;19924;-74
2022/11/25 14:18:23;;;;;;;;;;;18.10;99.90;;;;;;5071771;28;19913;-76
2022/11/25 14:20:57;;;;;;;;;;;18.20;99.90;;;;;;5073678;28;19919;-74
2022/11/25 14:23:33;;;;;;;;;;;18.20;99.90;;;;;;5052460;28;21590;-75
2022/11/25 14:26:08;;;;;;;;;;;18.20;99.90;;;;;;5053887;28;19974;-76
2022/11/25 14:28:51;;;;;;;;;;;18.10;99.90;;;;;;5052188;28;19920;-76
2022/11/25 14:31:21;;;;;;;;;;;18.10;99.90;;;;;;5051671;28;19909;-75
2022/11/25 14:33:51;;;;;;;;;;;18.10;99.90;;;;;;5054976;28;20286;-75
2022/11/25 14:36:24;;;;;;;;;;;18.00;99.90;;;;;;5071125;28;19978;-76
2022/11/25 14:38:57;;;;;;;;;;;18.00;99.90;;;;;;5071255;28;19919;-76
2022/11/25 14:41:44;;;;;;;;;;;17.90;99.90;;;;;;5058950;28;20000;-76
2022/11/25 14:44:13;;;;;;;;;;;17.90;99.90;;;;;;5062582;28;19912;-72
2022/11/25 14:46:53;;;;;;;;;;;17.90;99.90;;;;;;5070802;28;19916;-75